createdAt,value
2018-12-23T00:01:07.744Z,52.43
2018-12-23T00:06:03.736Z,25.87
2018-12-23T00:10:59.728Z,30.17
2018-12-23T00:15:55.716Z,18.00
2018-12-23T00:20:51.710Z,25.23
2018-12-23T00:25:47.808Z,26.20
2018-12-23T00:30:43.802Z,23.23
2018-12-23T00:35:39.780Z,38.23
2018-12-23T00:40:35.773Z,30.97
2018-12-23T00:45:31.758Z,42.33
2018-12-23T00:50:27.753Z,11.23
2018-12-23T00:55:23.742Z,22.57
2018-12-23T01:00:19.703Z,18.77
2018-12-23T01:05:15.700Z,14.03
2018-12-23T01:10:11.702Z,22.80
2018-12-23T01:15:07.900Z,16.50
2018-12-23T01:20:06.015Z,11.43
2018-12-23T01:25:02.437Z,18.50
2018-12-23T01:29:58.438Z,16.93
2018-12-23T01:34:54.429Z,21.60
2018-12-23T01:39:50.400Z,18.27
2018-12-23T01:44:46.397Z,28.17
2018-12-23T01:49:42.381Z,19.47
2018-12-23T01:54:38.362Z,15.43
2018-12-23T01:59:34.353Z,26.30
2018-12-23T02:04:30.348Z,15.77
2018-12-23T02:09:26.347Z,16.70
2018-12-23T02:14:22.337Z,25.93
2018-12-23T02:19:18.328Z,27.47
2018-12-23T02:24:14.313Z,27.07
2018-12-23T02:29:10.296Z,35.33
2018-12-23T02:34:06.293Z,24.93
2018-12-23T02:39:04.308Z,21.90
2018-12-23T02:44:00.301Z,14.70
2018-12-23T02:48:56.298Z,19.20
2018-12-23T02:53:52.289Z,29.00
2018-12-23T02:58:48.324Z,31.67
2018-12-23T03:03:44.403Z,36.03
2018-12-23T03:08:40.387Z,34.77
2018-12-23T03:13:36.378Z,17.20
2018-12-23T03:18:32.368Z,31.97
2018-12-23T03:23:28.356Z,31.80
2018-12-23T03:28:25.060Z,30.63
2018-12-23T03:33:21.057Z,20.23
2018-12-23T03:38:17.050Z,21.50
2018-12-23T03:43:13.062Z,27.20
2018-12-23T03:48:09.038Z,20.43
2018-12-23T03:53:05.025Z,26.20
2018-12-23T03:58:06.090Z,38.20
2018-12-23T04:03:08.953Z,30.10
2018-12-23T04:08:04.946Z,27.23
2018-12-23T04:13:00.934Z,25.17
2018-12-23T04:17:57.047Z,26.33
2018-12-23T04:22:53.090Z,31.87
2018-12-23T04:27:51.750Z,26.67
2018-12-23T04:32:47.816Z,29.33
2018-12-23T04:37:50.778Z,32.13
2018-12-23T04:42:46.777Z,22.80
2018-12-23T04:47:42.762Z,23.97
2018-12-23T04:52:38.749Z,31.00
2018-12-23T04:57:36.303Z,32.10
2018-12-23T05:02:32.352Z,21.23
2018-12-23T05:07:28.342Z,31.23
2018-12-23T05:12:24.342Z,32.70
2018-12-23T05:17:20.328Z,37.70
2018-12-23T05:22:16.340Z,38.10
2018-12-23T05:27:12.341Z,35.80
2018-12-23T05:32:08.353Z,41.73
2018-12-23T05:37:04.353Z,24.70
2018-12-23T05:42:00.461Z,24.30
2018-12-23T05:46:56.444Z,31.60
2018-12-23T05:51:52.433Z,45.03
2018-12-23T05:56:48.432Z,45.53
2018-12-23T06:01:44.468Z,39.10
2018-12-23T06:06:40.462Z,48.47
2018-12-23T06:11:36.455Z,49.13
2018-12-23T06:16:32.453Z,56.13
2018-12-23T06:21:28.459Z,45.43
2018-12-23T06:26:24.476Z,43.47
2018-12-23T06:31:20.550Z,68.03
2018-12-23T06:36:18.934Z,54.17
2018-12-23T06:41:14.933Z,58.47
2018-12-23T06:46:10.989Z,48.60
2018-12-23T06:51:07.168Z,33.57
2018-12-23T06:56:03.181Z,69.60
2018-12-23T07:00:59.457Z,45.70
2018-12-23T07:05:55.459Z,68.87
2018-12-23T07:10:51.449Z,60.73
2018-12-23T07:15:47.457Z,58.57
2018-12-23T07:20:43.489Z,67.83
2018-12-23T07:25:39.510Z,60.37
2018-12-23T07:30:35.547Z,47.13
2018-12-23T07:35:31.613Z,29.03
2018-12-23T07:40:27.695Z,55.53
2018-12-23T07:45:23.792Z,37.60
2018-12-23T07:50:19.852Z,54.07
2018-12-23T07:55:15.877Z,57.27
2018-12-23T08:00:11.951Z,75.53
2018-12-23T08:05:07.996Z,68.97
2018-12-23T08:21:14.421Z,61.33
2018-12-23T08:26:10.493Z,70.30
2018-12-23T08:31:06.658Z,53.97
2018-12-23T08:36:02.866Z,63.03
2018-12-23T08:40:58.933Z,59.30
2018-12-23T08:45:54.996Z,54.80
2018-12-23T08:50:51.041Z,58.20
2018-12-23T08:55:47.067Z,49.40
2018-12-23T09:00:43.113Z,52.50
2018-12-23T09:05:39.128Z,63.30
2018-12-23T09:10:35.200Z,48.40
2018-12-23T09:15:31.270Z,61.40
2018-12-23T09:20:27.313Z,48.40
2018-12-23T09:25:44.001Z,59.50
2018-12-23T09:30:40.919Z,26.97
2018-12-23T09:35:58.141Z,45.97
2018-12-23T09:40:55.164Z,53.30
2018-12-23T09:45:51.408Z,70.93
2018-12-23T09:50:47.552Z,63.07
2018-12-23T09:55:43.919Z,44.43
2018-12-23T10:00:40.129Z,29.77
2018-12-23T10:11:21.475Z,55.90
2018-12-23T10:21:33.783Z,63.33
2018-12-23T10:26:33.471Z,57.67
2018-12-23T10:31:31.079Z,55.63
2018-12-23T10:47:09.319Z,55.23
2018-12-23T10:52:28.025Z,69.10
2018-12-23T11:03:11.188Z,50.53
2018-12-23T11:14:06.511Z,43.00
2018-12-23T11:19:07.978Z,44.87
2018-12-23T11:24:25.900Z,42.87
2018-12-23T11:29:28.961Z,42.93
2018-12-23T11:34:48.703Z,67.00
2018-12-23T11:40:09.705Z,56.67
2018-12-23T11:50:11.359Z,48.40
2018-12-23T12:01:06.554Z,46.93
2018-12-23T12:06:25.583Z,57.93
2018-12-23T12:11:23.815Z,51.43
2018-12-23T12:16:21.070Z,49.60
2018-12-23T12:33:12.942Z,51.47
2018-12-23T12:38:52.206Z,58.03
2018-12-23T12:44:09.814Z,46.87
2018-12-23T12:49:48.651Z,51.23
2018-12-23T13:00:52.158Z,52.33
2018-12-23T13:11:56.927Z,45.37
2018-12-23T13:28:18.368Z,45.80
2018-12-23T13:33:15.413Z,48.70
2018-12-23T13:38:12.466Z,48.17
2018-12-23T13:43:48.971Z,40.53
2018-12-23T13:49:07.997Z,50.87
2018-12-23T13:54:45.816Z,55.23
2018-12-23T14:00:21.644Z,47.47
2018-12-23T14:05:59.467Z,41.83
2018-12-23T14:11:37.239Z,42.27
2018-12-23T14:16:33.275Z,39.07
2018-12-23T14:21:30.314Z,43.80
2018-12-23T14:26:26.569Z,38.50
2018-12-23T14:31:22.701Z,35.27
2018-12-23T14:36:18.933Z,31.97
2018-12-23T14:41:14.994Z,38.00
2018-12-23T14:46:11.042Z,34.97
2018-12-23T14:51:29.282Z,30.80
2018-12-23T14:56:25.520Z,37.73
2018-12-23T15:01:21.662Z,34.10
2018-12-23T15:06:17.703Z,26.37
2018-12-23T15:11:13.836Z,40.33
2018-12-23T15:16:09.878Z,25.33
2018-12-23T15:21:05.931Z,35.30
2018-12-23T15:26:01.977Z,31.17
2018-12-23T15:30:58.066Z,28.87
2018-12-23T15:35:54.159Z,31.40
2018-12-23T15:40:51.237Z,22.77
2018-12-23T15:45:47.722Z,23.03
2018-12-23T15:50:45.022Z,25.20
2018-12-23T15:55:43.017Z,28.20
2018-12-23T16:00:59.328Z,35.40
2018-12-23T16:05:56.584Z,21.67
2018-12-23T16:10:53.147Z,28.70
2018-12-23T16:15:51.443Z,20.80
2018-12-23T16:21:07.336Z,17.93
2018-12-23T16:26:03.366Z,15.43
2018-12-23T16:30:59.389Z,25.27
2018-12-23T16:35:55.496Z,21.20
2018-12-23T16:40:51.541Z,22.30
2018-12-23T16:45:47.842Z,18.97
2018-12-23T16:50:44.058Z,16.17
2018-12-23T16:55:40.072Z,15.07
2018-12-23T17:00:36.200Z,17.20
2018-12-23T17:05:33.766Z,18.03
2018-12-23T17:10:29.821Z,16.50
2018-12-23T17:15:25.875Z,17.40
2018-12-23T17:20:25.381Z,17.10
2018-12-23T17:25:21.602Z,13.23
2018-12-23T17:30:17.643Z,16.90
2018-12-23T17:35:33.661Z,20.87
2018-12-23T17:40:30.247Z,16.50
2018-12-23T17:45:27.847Z,18.93
2018-12-23T17:50:24.015Z,20.33
2018-12-23T17:55:20.054Z,17.60
2018-12-23T18:00:16.192Z,17.77
2018-12-23T18:05:12.234Z,26.03
2018-12-23T18:10:08.249Z,18.63
2018-12-23T18:15:45.950Z,18.80
2018-12-23T18:20:41.968Z,25.60
2018-12-23T18:25:37.988Z,24.97
2018-12-23T18:30:34.318Z,29.03
2018-12-23T18:35:30.521Z,19.73
2018-12-23T18:40:33.348Z,26.73
2018-12-23T18:45:24.591Z,23.70
2018-12-23T18:50:20.591Z,15.77
2018-12-23T18:55:16.631Z,20.30
2018-12-23T19:00:12.845Z,15.33
2018-12-23T19:05:08.961Z,16.37
2018-12-23T19:10:46.636Z,16.57
2018-12-23T19:16:24.295Z,16.87
2018-12-23T19:22:01.956Z,18.43
2018-12-23T19:27:39.260Z,14.60
2018-12-23T19:33:15.121Z,16.67
2018-12-23T19:38:52.970Z,16.80
2018-12-23T19:44:28.827Z,17.10
2018-12-23T19:50:06.476Z,12.60
2018-12-23T19:55:44.126Z,23.13
2018-12-23T20:01:21.907Z,25.20
2018-12-23T20:06:57.658Z,23.67
2018-12-23T20:12:33.411Z,17.10
2018-12-23T20:18:11.067Z,16.40
2018-12-23T20:23:46.821Z,20.17
2018-12-23T20:29:22.573Z,14.90
2018-12-23T20:34:58.334Z,12.60
2018-12-23T20:40:36.012Z,10.83
2018-12-23T20:46:11.762Z,6.13
2018-12-23T20:51:49.418Z,12.13
2018-12-23T20:57:25.167Z,4.10
2018-12-23T21:03:00.951Z,4.30
2018-12-23T21:08:38.641Z,3.20
2018-12-23T21:14:16.301Z,2.93
2018-12-23T21:19:38.882Z,5.33
2018-12-23T21:24:56.463Z,5.87
2018-12-23T21:30:34.123Z,6.17
2018-12-23T21:36:12.152Z,2.90
2018-12-23T21:41:49.819Z,2.03
2018-12-23T21:47:25.573Z,2.67
2018-12-23T21:53:03.257Z,5.20
2018-12-23T22:04:36.193Z,5.07
2018-12-23T22:10:13.845Z,7.93
2018-12-23T22:15:09.858Z,3.10
2018-12-23T22:20:05.980Z,7.70
2018-12-23T22:25:02.007Z,4.83
2018-12-23T22:29:58.019Z,15.23
2018-12-23T22:34:54.007Z,4.90
2018-12-23T22:39:50.141Z,5.30
2018-12-23T22:44:46.151Z,2.70
2018-12-23T22:49:42.171Z,5.57
2018-12-23T22:54:38.185Z,4.30
2018-12-23T22:59:34.199Z,1.60
2018-12-23T23:04:30.214Z,1.80
2018-12-23T23:09:26.237Z,2.70
2018-12-23T23:14:22.246Z,3.00
2018-12-23T23:19:18.265Z,6.13
2018-12-23T23:24:14.274Z,5.50
2018-12-23T23:29:10.299Z,2.17
2018-12-23T23:34:06.526Z,3.50
2018-12-23T23:39:44.192Z,2.60
2018-12-23T23:44:40.206Z,3.53
2018-12-23T23:49:36.227Z,2.60
2018-12-23T23:54:32.241Z,2.60
2018-12-23T23:59:28.254Z,2.73
